createdAt,value
2023-04-07T00:00:00.281Z,85.00
2023-04-07T00:02:29.231Z,85.68
2023-04-07T00:05:01.167Z,85.56
2023-04-07T00:07:30.315Z,85.32
2023-04-07T00:10:00.899Z,84.89
2023-04-07T00:12:29.823Z,85.22
2023-04-07T00:14:58.430Z,85.87
2023-04-07T00:17:27.426Z,85.46
2023-04-07T00:19:56.226Z,85.10
2023-04-07T00:22:24.756Z,85.49
2023-04-07T00:24:53.920Z,86.12
2023-04-07T00:27:24.434Z,86.00
2023-04-07T00:29:55.594Z,86.57
2023-04-07T00:32:24.146Z,87.09
2023-04-07T00:34:52.806Z,86.51
2023-04-07T00:37:21.321Z,86.30
2023-04-07T00:39:51.703Z,85.75
2023-04-07T00:42:20.488Z,85.98
2023-04-07T00:44:50.837Z,86.06
2023-04-07T00:47:19.605Z,86.14
2023-04-07T00:49:48.507Z,86.30
2023-04-07T00:52:17.597Z,85.96
2023-04-07T00:54:46.962Z,86.27
2023-04-07T00:57:16.255Z,86.68
2023-04-07T00:59:45.522Z,86.22
2023-04-07T01:02:18.844Z,86.45
2023-04-07T01:04:54.153Z,86.08
2023-04-07T01:07:26.086Z,86.58
2023-04-07T01:09:56.946Z,86.43
2023-04-07T01:12:31.527Z,86.21
2023-04-07T01:15:21.701Z,86.10
2023-04-07T01:17:55.929Z,85.78
2023-04-07T01:20:25.184Z,85.93
2023-04-07T01:22:56.290Z,85.64
2023-04-07T01:25:41.741Z,85.36
2023-04-07T01:28:17.488Z,86.12
2023-04-07T01:30:47.515Z,86.16
2023-04-07T01:33:17.387Z,86.06
2023-04-07T01:35:45.968Z,85.37
2023-04-07T01:38:14.903Z,85.39
2023-04-07T01:40:43.592Z,85.09
2023-04-07T01:43:13.391Z,85.45
2023-04-07T01:45:42.411Z,85.45
2023-04-07T01:48:12.778Z,85.61
2023-04-07T01:50:41.369Z,85.87
2023-04-07T01:53:10.086Z,86.47
2023-04-07T01:55:39.762Z,86.76
2023-04-07T01:58:08.677Z,86.80
2023-04-07T02:00:37.836Z,86.68
2023-04-07T02:03:10.472Z,86.63
2023-04-07T02:05:41.702Z,86.15
2023-04-07T02:08:10.518Z,86.94
2023-04-07T02:10:40.747Z,86.72
2023-04-07T02:13:10.333Z,87.01
2023-04-07T02:16:16.073Z,86.81
2023-04-07T02:18:48.276Z,87.19
2023-04-07T02:21:18.783Z,86.90
2023-04-07T02:23:48.446Z,87.48
2023-04-07T02:26:20.013Z,87.30
2023-04-07T02:28:48.661Z,87.39
2023-04-07T02:31:17.492Z,87.61
2023-04-07T02:33:45.982Z,87.46
2023-04-07T02:36:14.583Z,86.85
2023-04-07T02:38:44.759Z,86.83
2023-04-07T02:41:13.098Z,86.17
2023-04-07T02:43:41.691Z,86.19
2023-04-07T02:46:10.510Z,86.01
2023-04-07T02:48:39.551Z,85.54
2023-04-07T02:51:08.344Z,85.80
2023-04-07T02:53:37.238Z,86.74
2023-04-07T02:56:07.469Z,87.17
2023-04-07T02:58:36.055Z,87.29
2023-04-07T03:01:05.252Z,87.43
2023-04-07T03:03:34.190Z,87.20
2023-04-07T03:06:03.150Z,87.50
2023-04-07T03:08:32.084Z,87.47
2023-04-07T03:11:00.637Z,88.01
2023-04-07T03:13:31.141Z,87.60
2023-04-07T03:15:59.814Z,88.22
2023-04-07T03:18:28.390Z,88.18
2023-04-07T03:20:57.144Z,88.34
2023-04-07T03:23:25.625Z,88.37
2023-04-07T03:25:54.347Z,88.34
2023-04-07T03:28:23.089Z,88.50
2023-04-07T03:30:53.204Z,88.10
2023-04-07T03:33:21.719Z,88.25
2023-04-07T03:35:52.865Z,88.79
2023-04-07T03:38:21.821Z,89.08
2023-04-07T03:40:50.738Z,89.88
2023-04-07T03:43:19.249Z,90.59
2023-04-07T03:45:51.886Z,90.64
2023-04-07T03:48:21.958Z,91.20
2023-04-07T03:50:50.323Z,91.51
2023-04-07T03:53:20.659Z,91.48
2023-04-07T03:55:49.378Z,91.58
2023-04-07T03:58:18.178Z,91.47
2023-04-07T04:00:54.835Z,91.44
2023-04-07T04:03:28.456Z,91.28
2023-04-07T04:05:59.886Z,91.36
2023-04-07T04:08:28.924Z,91.91
2023-04-07T04:15:11.803Z,91.52
2023-04-07T04:17:40.501Z,91.70
2023-04-07T04:20:11.482Z,91.67
2023-04-07T04:22:40.229Z,91.54
2023-04-07T04:25:09.074Z,91.70
2023-04-07T04:27:37.948Z,91.58
2023-04-07T04:30:08.255Z,91.28
2023-04-07T04:32:37.009Z,91.29
2023-04-07T04:35:06.528Z,91.31
2023-04-07T04:37:37.390Z,91.06
2023-04-07T04:40:08.636Z,90.95
2023-04-07T04:42:37.521Z,90.78
2023-04-07T04:45:06.994Z,90.27
2023-04-07T04:47:35.652Z,90.40
2023-04-07T04:50:04.401Z,90.57
2023-04-07T04:52:33.020Z,90.77
2023-04-07T04:55:03.862Z,90.94
2023-04-07T04:57:32.458Z,90.71
2023-04-07T05:00:01.255Z,90.97
2023-04-07T05:02:32.418Z,90.72
2023-04-07T05:05:01.315Z,90.17
2023-04-07T05:07:30.541Z,89.52
2023-04-07T05:09:59.273Z,88.89
2023-04-07T05:12:31.499Z,88.61
2023-04-07T05:15:00.959Z,88.27
2023-04-07T05:17:30.013Z,88.12
2023-04-07T05:19:58.634Z,87.54
2023-04-07T05:22:27.399Z,87.58
2023-04-07T05:24:56.627Z,87.05
2023-04-07T05:27:25.959Z,87.30
2023-04-07T05:29:56.592Z,86.76
2023-04-07T05:32:27.792Z,86.55
2023-04-07T05:34:57.279Z,86.91
2023-04-07T05:37:25.697Z,86.34
2023-04-07T05:39:54.699Z,86.32
2023-04-07T05:42:23.296Z,86.65
2023-04-07T05:44:52.062Z,86.45
2023-04-07T05:47:21.962Z,86.12
2023-04-07T05:49:50.612Z,85.70
2023-04-07T05:52:19.673Z,86.04
2023-04-07T05:54:48.146Z,86.78
2023-04-07T05:57:19.105Z,86.27
2023-04-07T05:59:47.653Z,86.60
2023-04-07T06:02:16.629Z,85.58
2023-04-07T06:04:47.142Z,85.29
2023-04-07T06:07:16.542Z,84.33
2023-04-07T06:10:10.839Z,84.20
2023-04-07T06:12:42.229Z,83.49
2023-04-07T06:15:11.669Z,83.30
2023-04-07T06:17:40.535Z,82.53
2023-04-07T06:20:11.234Z,82.54
2023-04-07T06:22:40.866Z,82.48
2023-04-07T06:25:10.247Z,83.09
2023-04-07T06:27:38.958Z,83.18
2023-04-07T06:30:08.927Z,83.64
2023-04-07T06:32:37.537Z,83.20
2023-04-07T06:35:07.085Z,82.56
2023-04-07T06:37:37.262Z,81.59
2023-04-07T06:40:06.615Z,81.14
2023-04-07T06:42:35.926Z,79.92
2023-04-07T06:45:04.888Z,78.08
2023-04-07T06:47:33.612Z,76.93
2023-04-07T06:50:02.182Z,75.08
2023-04-07T06:52:31.365Z,73.72
2023-04-07T06:55:01.823Z,72.59
2023-04-07T06:57:30.735Z,71.82
2023-04-07T06:59:59.243Z,70.46
2023-04-07T07:02:27.990Z,70.85
2023-04-07T07:04:56.472Z,71.09
2023-04-07T07:07:26.056Z,70.06
2023-04-07T07:09:55.421Z,68.83
2023-04-07T07:12:28.435Z,68.85
2023-04-07T07:14:57.280Z,68.54
2023-04-07T07:17:26.026Z,67.53
2023-04-07T07:19:54.710Z,68.09
2023-04-07T07:22:23.273Z,69.09
2023-04-07T07:24:52.025Z,67.54
2023-04-07T07:27:20.936Z,66.57
2023-04-07T07:29:50.575Z,66.47
2023-04-07T07:32:22.291Z,67.34
2023-04-07T07:34:50.669Z,64.24
2023-04-07T07:37:19.562Z,58.56
2023-04-07T07:39:48.139Z,57.81
2023-04-07T07:42:17.174Z,55.16
2023-04-07T07:44:46.025Z,55.13
2023-04-07T07:47:16.713Z,49.90
2023-04-07T07:49:45.566Z,49.26
2023-04-07T07:52:14.450Z,46.66
2023-04-07T07:54:43.246Z,45.92
2023-04-07T07:57:13.954Z,45.51
2023-04-07T07:59:42.745Z,44.04
2023-04-07T08:02:12.153Z,43.62
2023-04-07T08:04:42.502Z,42.40
2023-04-07T08:07:11.755Z,39.59
2023-04-07T08:09:40.865Z,39.99
2023-04-07T08:12:17.015Z,40.51
2023-04-07T08:14:45.745Z,39.10
2023-04-07T08:17:16.534Z,40.58
2023-04-07T08:19:46.845Z,40.21
2023-04-07T08:22:17.125Z,42.10
2023-04-07T08:24:48.760Z,41.25
2023-04-07T08:27:17.747Z,39.72
2023-04-07T08:29:46.394Z,40.40
2023-04-07T08:32:15.099Z,40.06
2023-04-07T08:34:43.928Z,38.93
2023-04-07T08:37:14.284Z,39.54
2023-04-07T08:39:45.852Z,38.00
2023-04-07T08:42:16.476Z,39.00
2023-04-07T08:44:46.639Z,37.79
2023-04-07T08:47:17.020Z,39.52
2023-04-07T08:49:46.854Z,39.91
2023-04-07T08:52:17.488Z,40.05
2023-04-07T08:54:46.313Z,39.36
2023-04-07T08:57:15.022Z,39.71
2023-04-07T08:59:47.347Z,39.29
2023-04-07T09:02:16.194Z,38.97
2023-04-07T09:04:47.546Z,37.74
2023-04-07T09:07:17.778Z,37.44
2023-04-07T09:09:46.563Z,36.95
2023-04-07T09:12:15.343Z,36.15
2023-04-07T09:14:44.180Z,34.50
2023-04-07T09:17:12.781Z,34.76
2023-04-07T09:19:44.217Z,35.87
2023-04-07T09:22:14.592Z,34.26
2023-04-07T09:24:44.610Z,34.47
2023-04-07T09:27:17.018Z,33.69
2023-04-07T09:29:47.227Z,35.04
2023-04-07T09:32:26.581Z,33.71
2023-04-07T09:35:00.892Z,33.48
2023-04-07T09:37:29.644Z,32.96
2023-04-07T09:39:59.891Z,32.00
2023-04-07T09:42:32.690Z,32.72
2023-04-07T09:45:01.838Z,31.82
2023-04-07T09:47:31.683Z,32.75
2023-04-07T09:50:06.916Z,32.15
2023-04-07T09:52:53.224Z,31.88
2023-04-07T09:55:24.881Z,29.56
2023-04-07T09:57:55.553Z,28.13
2023-04-07T10:00:24.939Z,28.46
2023-04-07T10:02:54.601Z,28.06
2023-04-07T10:05:23.743Z,28.83
2023-04-07T10:07:52.749Z,29.02
2023-04-07T10:10:21.617Z,28.13
2023-04-07T10:12:52.045Z,28.01
2023-04-07T10:15:20.624Z,27.67
2023-04-07T10:17:49.812Z,27.49
2023-04-07T10:20:43.704Z,28.80
2023-04-07T10:23:17.961Z,28.93
2023-04-07T10:25:47.537Z,29.29
2023-04-07T10:28:18.199Z,29.86
2023-04-07T10:30:47.135Z,26.08
2023-04-07T10:33:15.606Z,25.98
2023-04-07T10:36:06.708Z,26.38
2023-04-07T10:38:35.600Z,27.17
2023-04-07T10:41:35.209Z,27.14
2023-04-07T10:44:05.655Z,27.58
2023-04-07T10:47:06.346Z,28.14
2023-04-07T10:49:35.505Z,26.53
2023-04-07T10:52:25.674Z,26.89
2023-04-07T10:55:31.868Z,26.61
2023-04-07T10:58:23.038Z,28.21
2023-04-07T11:01:22.117Z,28.46
2023-04-07T11:04:01.667Z,30.10
2023-04-07T11:06:30.473Z,30.11
2023-04-07T11:09:00.551Z,29.56
2023-04-07T11:11:43.437Z,29.24
2023-04-07T11:14:12.203Z,28.45
2023-04-07T11:16:46.021Z,29.46
2023-04-07T11:19:15.886Z,30.08
2023-04-07T11:21:44.722Z,29.94
2023-04-07T11:24:35.199Z,30.92
2023-04-07T11:27:04.741Z,32.88
2023-04-07T11:29:33.729Z,31.22
2023-04-07T11:32:04.649Z,32.00
2023-04-07T11:34:37.582Z,30.03
2023-04-07T11:37:21.289Z,32.78
2023-04-07T11:39:55.983Z,33.70
2023-04-07T11:42:34.850Z,33.66
2023-04-07T11:45:05.895Z,33.57
2023-04-07T11:47:38.487Z,35.02
2023-04-07T11:50:08.059Z,35.00
2023-04-07T11:52:42.806Z,35.44
2023-04-07T11:55:21.962Z,34.65
2023-04-07T11:57:52.139Z,34.42
2023-04-07T12:03:16.719Z,34.77
2023-04-07T12:05:46.976Z,35.04
2023-04-07T12:08:18.200Z,35.23
2023-04-07T12:10:47.597Z,35.60
2023-04-07T12:13:17.279Z,35.68
2023-04-07T12:15:45.873Z,35.85
2023-04-07T12:18:19.363Z,35.57
2023-04-07T12:20:47.686Z,36.06
2023-04-07T12:23:19.206Z,35.68
2023-04-07T12:25:48.029Z,37.75
2023-04-07T12:28:17.036Z,38.47
2023-04-07T12:30:47.726Z,38.54
2023-04-07T12:33:18.228Z,37.75
2023-04-07T12:35:46.773Z,36.80
2023-04-07T12:38:15.997Z,36.38
2023-04-07T12:40:45.171Z,37.64
2023-04-07T12:43:14.100Z,37.41
2023-04-07T12:45:43.570Z,37.50
2023-04-07T12:48:13.774Z,36.93
2023-04-07T12:50:43.823Z,37.09
2023-04-07T12:53:12.510Z,36.27
2023-04-07T12:55:42.327Z,36.43
2023-04-07T12:58:11.203Z,34.94
2023-04-07T13:00:40.039Z,35.00
2023-04-07T13:03:10.272Z,34.33
2023-04-07T13:05:39.078Z,34.80
2023-04-07T13:08:09.410Z,34.69
2023-04-07T13:10:38.259Z,35.62
2023-04-07T13:13:06.657Z,34.68
2023-04-07T13:15:35.518Z,34.43
2023-04-07T13:18:04.210Z,33.75
2023-04-07T13:20:33.367Z,34.19
2023-04-07T13:23:08.250Z,35.07
2023-04-07T13:25:42.822Z,35.78
2023-04-07T13:28:11.578Z,35.04
2023-04-07T13:30:41.941Z,34.94
2023-04-07T13:33:10.561Z,35.57
2023-04-07T13:35:39.557Z,34.01
2023-04-07T13:38:09.582Z,34.35
2023-04-07T13:40:45.072Z,33.32
2023-04-07T13:43:13.917Z,34.52
2023-04-07T13:45:43.406Z,33.38
2023-04-07T13:48:15.118Z,33.61
2023-04-07T13:50:44.068Z,34.91
2023-04-07T13:53:12.757Z,34.77
2023-04-07T13:55:42.884Z,34.19
2023-04-07T13:58:12.098Z,34.11
2023-04-07T14:00:40.861Z,34.61
2023-04-07T14:03:13.167Z,34.21
2023-04-07T14:05:42.007Z,34.04
2023-04-07T14:08:10.543Z,33.29
2023-04-07T14:10:42.296Z,33.61
2023-04-07T14:13:11.185Z,33.66
2023-04-07T14:15:40.320Z,34.32
2023-04-07T14:18:10.064Z,34.16
2023-04-07T14:20:41.727Z,34.62
2023-04-07T14:23:10.464Z,35.69
2023-04-07T14:25:39.473Z,35.86
2023-04-07T14:28:11.788Z,35.47
2023-04-07T14:30:43.732Z,36.17
2023-04-07T14:33:12.887Z,36.85
2023-04-07T14:35:42.002Z,36.96
2023-04-07T14:38:10.753Z,37.28
2023-04-07T14:40:40.029Z,37.11
2023-04-07T14:43:10.563Z,36.90
2023-04-07T14:45:41.321Z,37.73
2023-04-07T14:48:10.051Z,38.49
2023-04-07T14:50:39.028Z,37.23
2023-04-07T14:53:08.161Z,37.55
2023-04-07T14:55:37.676Z,38.36
2023-04-07T14:58:06.532Z,37.33
2023-04-07T15:00:34.961Z,37.90
2023-04-07T15:03:05.833Z,37.12
2023-04-07T15:05:34.817Z,36.05
2023-04-07T15:08:03.659Z,36.67
2023-04-07T15:10:35.673Z,36.72
2023-04-07T15:13:04.182Z,36.90
2023-04-07T15:15:35.057Z,36.38
2023-04-07T15:18:05.208Z,36.17
2023-04-07T15:20:34.501Z,35.43
2023-04-07T15:23:03.783Z,36.48
2023-04-07T15:25:35.837Z,36.72
2023-04-07T15:28:05.077Z,36.67
2023-04-07T15:30:37.429Z,36.70
2023-04-07T15:33:07.759Z,37.05
2023-04-07T15:35:36.598Z,36.15
2023-04-07T15:38:05.492Z,36.03
2023-04-07T15:40:39.917Z,35.80
2023-04-07T15:43:11.638Z,36.24
2023-04-07T15:45:46.618Z,36.44
2023-04-07T15:48:16.725Z,35.78
2023-04-07T15:50:46.160Z,35.54
2023-04-07T15:53:15.413Z,35.58
2023-04-07T15:55:45.131Z,35.34
2023-04-07T15:58:16.085Z,35.89
2023-04-07T16:00:46.448Z,36.52
2023-04-07T16:03:19.096Z,38.09
2023-04-07T16:05:48.256Z,36.99
2023-04-07T16:08:16.989Z,36.66
2023-04-07T16:10:45.669Z,36.69
2023-04-07T16:13:18.438Z,35.89
2023-04-07T16:15:47.792Z,36.94
2023-04-07T16:18:17.693Z,37.48
2023-04-07T16:20:47.889Z,36.91
2023-04-07T16:23:16.944Z,37.14
2023-04-07T16:25:45.777Z,37.46
2023-04-07T16:28:14.690Z,37.51
2023-04-07T16:30:43.855Z,38.82
2023-04-07T16:33:13.444Z,38.49
2023-04-07T16:35:42.768Z,37.87
2023-04-07T16:38:13.891Z,38.35
2023-04-07T16:40:45.846Z,38.70
2023-04-07T16:43:18.782Z,37.68
2023-04-07T16:45:54.112Z,37.47
2023-04-07T16:48:22.828Z,39.72
2023-04-07T16:50:51.672Z,39.80
2023-04-07T16:53:21.938Z,40.89
2023-04-07T16:55:50.496Z,40.11
2023-04-07T16:58:19.878Z,39.88
2023-04-07T17:00:48.514Z,40.05
2023-04-07T17:03:17.191Z,39.48
2023-04-07T17:05:47.485Z,40.12
2023-04-07T17:08:16.292Z,41.32
2023-04-07T17:10:46.216Z,41.03
2023-04-07T17:13:17.301Z,41.50
2023-04-07T17:15:46.238Z,41.61
2023-04-07T17:18:15.230Z,41.06
2023-04-07T17:20:43.947Z,41.40
2023-04-07T17:23:13.026Z,42.79
2023-04-07T17:25:41.637Z,43.14
2023-04-07T17:28:12.235Z,43.06
2023-04-07T17:30:41.752Z,43.52
2023-04-07T17:33:10.854Z,44.13
2023-04-07T17:35:39.844Z,43.94
2023-04-07T17:38:08.546Z,44.94
2023-04-07T17:40:36.946Z,45.16
2023-04-07T17:43:05.525Z,45.28
2023-04-07T17:45:36.125Z,46.04
2023-04-07T17:48:05.729Z,46.22
2023-04-07T17:50:34.895Z,46.21
2023-04-07T17:53:05.824Z,46.87
2023-04-07T17:55:34.696Z,47.36
2023-04-07T17:58:03.693Z,48.09
2023-04-07T18:00:33.030Z,48.85
2023-04-07T18:03:04.261Z,49.03
2023-04-07T18:05:33.445Z,49.43
2023-04-07T18:08:05.420Z,49.61
2023-04-07T18:10:34.679Z,49.34
2023-04-07T18:13:05.060Z,49.36
2023-04-07T18:15:33.870Z,49.41
2023-04-07T18:18:07.174Z,50.35
2023-04-07T18:20:38.030Z,50.06
2023-04-07T18:23:07.374Z,50.06
2023-04-07T18:25:36.809Z,49.90
2023-04-07T18:28:08.348Z,49.65
2023-04-07T18:30:37.710Z,50.08
2023-04-07T18:33:07.998Z,50.99
2023-04-07T18:35:39.078Z,50.41
2023-04-07T18:38:10.696Z,50.24
2023-04-07T18:40:40.438Z,50.00
2023-04-07T18:43:09.783Z,49.99
2023-04-07T18:45:39.358Z,51.55
2023-04-07T18:48:09.966Z,51.16
2023-04-07T18:50:38.349Z,52.05
2023-04-07T18:53:07.681Z,52.69
2023-04-07T18:55:36.611Z,52.74
2023-04-07T18:58:05.813Z,53.04
2023-04-07T19:00:36.578Z,52.72
2023-04-07T19:03:05.948Z,53.05
2023-04-07T19:05:41.938Z,53.85
2023-04-07T19:08:12.239Z,53.51
2023-04-07T19:10:41.201Z,51.12
2023-04-07T19:13:10.174Z,51.25
2023-04-07T19:15:40.830Z,51.30
2023-04-07T19:18:09.549Z,50.85
2023-04-07T19:20:39.613Z,50.76
2023-04-07T19:23:10.755Z,50.80
2023-04-07T19:25:40.560Z,50.15
2023-04-07T19:28:10.301Z,50.04
2023-04-07T19:30:39.361Z,49.54
2023-04-07T19:33:08.534Z,50.48
2023-04-07T19:35:41.257Z,50.48
2023-04-07T19:38:11.875Z,51.04
2023-04-07T19:40:42.699Z,51.09
2023-04-07T19:43:11.856Z,51.34
2023-04-07T19:45:40.831Z,51.32
2023-04-07T19:48:09.329Z,51.20
2023-04-07T19:50:45.420Z,52.45
2023-04-07T19:53:18.092Z,52.95
2023-04-07T19:55:48.895Z,53.02
2023-04-07T19:58:19.074Z,52.78
2023-04-07T20:00:50.049Z,53.26
2023-04-07T20:03:19.270Z,53.12
2023-04-07T20:05:48.369Z,53.11
2023-04-07T20:08:18.495Z,54.24
2023-04-07T20:10:47.291Z,52.05
2023-04-07T20:13:15.875Z,51.16
2023-04-07T20:15:45.312Z,51.74
2023-04-07T20:18:18.712Z,51.71
2023-04-07T20:20:48.494Z,52.63
2023-04-07T20:23:22.364Z,52.78
2023-04-07T20:25:51.180Z,53.67
2023-04-07T20:28:22.761Z,54.24
2023-04-07T20:30:51.691Z,54.47
2023-04-07T20:33:20.816Z,54.73
2023-04-07T20:35:49.817Z,56.27
2023-04-07T20:38:20.513Z,56.46
2023-04-07T20:40:49.152Z,56.33
2023-04-07T20:43:20.647Z,57.19
2023-04-07T20:45:49.465Z,56.34
2023-04-07T20:48:23.608Z,57.45
2023-04-07T20:51:17.700Z,57.92
2023-04-07T20:53:47.870Z,58.75
2023-04-07T20:56:19.678Z,58.81
2023-04-07T20:58:48.993Z,58.60
2023-04-07T21:01:18.174Z,57.95
2023-04-07T21:03:48.258Z,57.25
2023-04-07T21:06:17.550Z,56.79
2023-04-07T21:08:48.356Z,57.84
2023-04-07T21:11:17.382Z,58.30
2023-04-07T21:13:46.261Z,60.14
2023-04-07T21:16:15.269Z,60.59
2023-04-07T21:18:44.054Z,60.87
2023-04-07T21:21:13.224Z,61.82
2023-04-07T21:23:42.147Z,58.57
2023-04-07T21:26:12.689Z,58.74
2023-04-07T21:28:41.362Z,58.40
2023-04-07T21:31:10.432Z,58.53
2023-04-07T21:33:40.012Z,58.48
2023-04-07T21:36:09.093Z,58.59
2023-04-07T21:38:40.372Z,57.40
2023-04-07T21:41:09.262Z,57.32
2023-04-07T21:43:39.731Z,58.41
2023-04-07T21:46:08.467Z,57.64
2023-04-07T21:48:37.456Z,57.71
2023-04-07T21:51:06.090Z,59.12
2023-04-07T21:53:35.969Z,59.31
2023-04-07T21:56:04.982Z,59.78
2023-04-07T21:58:33.934Z,59.63
2023-04-07T22:01:04.668Z,59.70
2023-04-07T22:03:33.660Z,59.48
2023-04-07T22:06:04.652Z,60.00
2023-04-07T22:08:33.347Z,60.31
2023-04-07T22:11:02.000Z,59.80
2023-04-07T22:13:30.977Z,59.58
2023-04-07T22:16:02.460Z,58.80
2023-04-07T22:18:32.945Z,59.07
2023-04-07T22:21:01.445Z,59.34
2023-04-07T22:23:30.688Z,59.65
2023-04-07T22:25:59.667Z,60.24
2023-04-07T22:28:28.645Z,61.27
2023-04-07T22:31:01.628Z,61.66
2023-04-07T22:33:30.653Z,62.15
2023-04-07T22:36:00.592Z,62.60
2023-04-07T22:38:29.900Z,62.56
2023-04-07T22:40:58.621Z,62.59
2023-04-07T22:43:27.676Z,63.75
2023-04-07T22:45:56.218Z,63.39
2023-04-07T22:48:25.055Z,62.26
2023-04-07T22:50:53.692Z,60.60
2023-04-07T22:53:24.228Z,61.00
2023-04-07T22:56:17.424Z,59.97
2023-04-07T22:58:46.380Z,61.13
2023-04-07T23:01:15.025Z,61.44
2023-04-07T23:03:46.929Z,62.45
2023-04-07T23:06:15.817Z,63.26
2023-04-07T23:08:46.956Z,65.45
2023-04-07T23:11:16.367Z,66.34
2023-04-07T23:13:45.515Z,70.27
2023-04-07T23:16:16.842Z,75.32
2023-04-07T23:18:48.971Z,81.05
2023-04-07T23:21:17.963Z,86.68
2023-04-07T23:23:48.014Z,88.70
2023-04-07T23:26:16.795Z,91.19
2023-04-07T23:28:45.475Z,91.43
2023-04-07T23:31:14.543Z,91.87
2023-04-07T23:33:46.981Z,94.65
2023-04-07T23:36:15.482Z,95.38
2023-04-07T23:38:44.193Z,98.11
2023-04-07T23:41:15.724Z,98.81
2023-04-07T23:43:47.887Z,99.49
2023-04-07T23:46:16.693Z,100.00
2023-04-07T23:48:45.573Z,100.00
2023-04-07T23:51:14.916Z,100.00
2023-04-07T23:53:43.738Z,100.00
2023-04-07T23:56:14.108Z,100.00
2023-04-07T23:58:42.905Z,100.00
